sensor_id;sensor_type;location;lat;lon;timestamp;P1;durP1;ratioP1;P2;durP2;ratioP2
50495;SDS011;38806;51.554;5.704;2023-03-12T00:01:54;8.13;;;4.25;;
50495;SDS011;38806;51.554;5.704;2023-03-12T00:03:54;7.82;;;3.85;;
50495;SDS011;38806;51.554;5.704;2023-03-12T00:05:54;8.77;;;3.97;;
50495;SDS011;38806;51.554;5.704;2023-03-12T00:07:55;8.90;;;4.45;;
50495;SDS011;38806;51.554;5.704;2023-03-12T00:09:58;11.13;;;4.22;;
50495;SDS011;38806;51.554;5.704;2023-03-12T00:11:58;12.52;;;4.43;;
50495;SDS011;38806;51.554;5.704;2023-03-12T00:13:59;8.38;;;3.67;;
50495;SDS011;38806;51.554;5.704;2023-03-12T00:16:06;8.90;;;4.85;;
50495;SDS011;38806;51.554;5.704;2023-03-12T00:18:07;7.97;;;4.37;;
50495;SDS011;38806;51.554;5.704;2023-03-12T00:20:07;6.95;;;3.50;;
50495;SDS011;38806;51.554;5.704;2023-03-12T00:22:08;7.05;;;3.63;;
50495;SDS011;38806;51.554;5.704;2023-03-12T00:24:08;8.63;;;4.35;;
50495;SDS011;38806;51.554;5.704;2023-03-12T00:26:09;8.60;;;4.10;;
50495;SDS011;38806;51.554;5.704;2023-03-12T00:28:10;9.55;;;4.10;;
50495;SDS011;38806;51.554;5.704;2023-03-12T00:30:10;7.82;;;3.70;;
50495;SDS011;38806;51.554;5.704;2023-03-12T00:32:10;6.75;;;3.80;;
50495;SDS011;38806;51.554;5.704;2023-03-12T00:34:11;7.43;;;4.75;;
50495;SDS011;38806;51.554;5.704;2023-03-12T00:36:12;10.20;;;3.85;;
50495;SDS011;38806;51.554;5.704;2023-03-12T00:38:12;7.78;;;3.95;;
50495;SDS011;38806;51.554;5.704;2023-03-12T00:40:12;9.93;;;4.45;;
50495;SDS011;38806;51.554;5.704;2023-03-12T00:42:13;7.63;;;3.97;;
50495;SDS011;38806;51.554;5.704;2023-03-12T00:44:13;7.60;;;4.22;;
50495;SDS011;38806;51.554;5.704;2023-03-12T00:46:13;10.10;;;4.05;;
50495;SDS011;38806;51.554;5.704;2023-03-12T00:48:14;8.90;;;4.20;;
50495;SDS011;38806;51.554;5.704;2023-03-12T00:50:14;9.93;;;3.92;;
50495;SDS011;38806;51.554;5.704;2023-03-12T00:52:14;9.65;;;4.80;;
50495;SDS011;38806;51.554;5.704;2023-03-12T00:54:14;9.25;;;4.25;;
50495;SDS011;38806;51.554;5.704;2023-03-12T00:56:14;9.63;;;4.35;;
50495;SDS011;38806;51.554;5.704;2023-03-12T00:58:15;13.75;;;4.45;;
50495;SDS011;38806;51.554;5.704;2023-03-12T01:00:15;7.47;;;4.15;;
50495;SDS011;38806;51.554;5.704;2023-03-12T01:02:15;8.73;;;3.50;;
50495;SDS011;38806;51.554;5.704;2023-03-12T01:04:15;9.98;;;4.15;;
50495;SDS011;38806;51.554;5.704;2023-03-12T01:06:16;5.93;;;4.10;;
50495;SDS011;38806;51.554;5.704;2023-03-12T01:08:16;10.32;;;4.03;;
50495;SDS011;38806;51.554;5.704;2023-03-12T01:10:17;8.60;;;4.30;;
50495;SDS011;38806;51.554;5.704;2023-03-12T01:12:18;9.52;;;4.10;;
50495;SDS011;38806;51.554;5.704;2023-03-12T01:14:18;11.80;;;5.25;;
50495;SDS011;38806;51.554;5.704;2023-03-12T01:16:18;9.32;;;5.28;;
50495;SDS011;38806;51.554;5.704;2023-03-12T01:18:19;9.40;;;4.03;;
50495;SDS011;38806;51.554;5.704;2023-03-12T01:20:19;9.35;;;4.30;;
50495;SDS011;38806;51.554;5.704;2023-03-12T01:22:19;7.60;;;4.30;;
50495;SDS011;38806;51.554;5.704;2023-03-12T01:24:19;7.07;;;3.80;;
50495;SDS011;38806;51.554;5.704;2023-03-12T01:26:20;14.55;;;5.40;;
50495;SDS011;38806;51.554;5.704;2023-03-12T01:28:23;7.95;;;4.50;;
50495;SDS011;38806;51.554;5.704;2023-03-12T01:30:24;8.75;;;4.43;;
50495;SDS011;38806;51.554;5.704;2023-03-12T01:32:24;8.45;;;4.00;;
50495;SDS011;38806;51.554;5.704;2023-03-12T01:34:24;11.55;;;4.95;;
50495;SDS011;38806;51.554;5.704;2023-03-12T01:36:26;11.32;;;6.85;;
50495;SDS011;38806;51.554;5.704;2023-03-12T01:38:26;9.18;;;4.35;;
50495;SDS011;38806;51.554;5.704;2023-03-12T01:40:26;14.75;;;4.53;;
50495;SDS011;38806;51.554;5.704;2023-03-12T01:42:27;9.80;;;5.32;;
50495;SDS011;38806;51.554;5.704;2023-03-12T01:44:28;10.65;;;5.32;;
50495;SDS011;38806;51.554;5.704;2023-03-12T01:46:34;8.85;;;4.38;;
50495;SDS011;38806;51.554;5.704;2023-03-12T01:48:37;6.72;;;3.50;;
50495;SDS011;38806;51.554;5.704;2023-03-12T01:50:38;8.23;;;3.55;;
50495;SDS011;38806;51.554;5.704;2023-03-12T01:52:38;13.25;;;4.20;;
50495;SDS011;38806;51.554;5.704;2023-03-12T01:54:43;7.25;;;3.33;;
50495;SDS011;38806;51.554;5.704;2023-03-12T01:56:44;7.55;;;4.60;;
50495;SDS011;38806;51.554;5.704;2023-03-12T01:58:46;7.95;;;3.72;;
50495;SDS011;38806;51.554;5.704;2023-03-12T02:00:48;7.20;;;4.18;;
50495;SDS011;38806;51.554;5.704;2023-03-12T02:02:48;7.07;;;3.95;;
50495;SDS011;38806;51.554;5.704;2023-03-12T02:04:49;10.93;;;5.85;;
50495;SDS011;38806;51.554;5.704;2023-03-12T02:06:52;12.73;;;4.85;;
50495;SDS011;38806;51.554;5.704;2023-03-12T02:08:53;12.52;;;5.05;;
50495;SDS011;38806;51.554;5.704;2023-03-12T02:10:54;7.65;;;3.97;;
50495;SDS011;38806;51.554;5.704;2023-03-12T02:12:54;5.80;;;3.80;;
50495;SDS011;38806;51.554;5.704;2023-03-12T02:14:54;8.27;;;4.10;;
50495;SDS011;38806;51.554;5.704;2023-03-12T02:16:55;9.70;;;4.75;;
50495;SDS011;38806;51.554;5.704;2023-03-12T02:18:55;7.13;;;3.72;;
50495;SDS011;38806;51.554;5.704;2023-03-12T02:21:06;9.45;;;4.00;;
50495;SDS011;38806;51.554;5.704;2023-03-12T02:23:09;10.23;;;4.00;;
50495;SDS011;38806;51.554;5.704;2023-03-12T02:27:17;13.95;;;6.78;;
50495;SDS011;38806;51.554;5.704;2023-03-12T02:29:17;12.50;;;5.20;;
50495;SDS011;38806;51.554;5.704;2023-03-12T02:31:18;8.80;;;4.57;;
50495;SDS011;38806;51.554;5.704;2023-03-12T02:33:19;8.82;;;4.20;;
50495;SDS011;38806;51.554;5.704;2023-03-12T02:35:19;9.38;;;4.45;;
50495;SDS011;38806;51.554;5.704;2023-03-12T02:37:20;9.57;;;4.10;;
50495;SDS011;38806;51.554;5.704;2023-03-12T02:39:20;8.55;;;4.70;;
50495;SDS011;38806;51.554;5.704;2023-03-12T02:41:30;9.13;;;4.50;;
50495;SDS011;38806;51.554;5.704;2023-03-12T02:43:31;10.18;;;5.07;;
50495;SDS011;38806;51.554;5.704;2023-03-12T02:45:31;8.70;;;3.63;;
50495;SDS011;38806;51.554;5.704;2023-03-12T02:47:32;14.68;;;4.60;;
50495;SDS011;38806;51.554;5.704;2023-03-12T02:49:32;11.77;;;4.22;;
50495;SDS011;38806;51.554;5.704;2023-03-12T02:51:33;7.78;;;3.90;;
50495;SDS011;38806;51.554;5.704;2023-03-12T02:53:33;12.82;;;4.10;;
50495;SDS011;38806;51.554;5.704;2023-03-12T02:55:33;8.65;;;4.70;;
50495;SDS011;38806;51.554;5.704;2023-03-12T02:57:33;9.93;;;4.28;;
50495;SDS011;38806;51.554;5.704;2023-03-12T02:59:36;9.75;;;5.40;;
50495;SDS011;38806;51.554;5.704;2023-03-12T03:01:36;12.18;;;4.25;;
50495;SDS011;38806;51.554;5.704;2023-03-12T03:03:36;8.77;;;4.85;;
50495;SDS011;38806;51.554;5.704;2023-03-12T03:05:37;9.50;;;4.32;;
50495;SDS011;38806;51.554;5.704;2023-03-12T03:07:37;7.95;;;4.50;;
50495;SDS011;38806;51.554;5.704;2023-03-12T03:09:37;14.30;;;5.43;;
50495;SDS011;38806;51.554;5.704;2023-03-12T03:11:37;9.88;;;4.10;;
50495;SDS011;38806;51.554;5.704;2023-03-12T03:13:38;8.43;;;4.50;;
50495;SDS011;38806;51.554;5.704;2023-03-12T03:15:38;9.70;;;5.15;;
50495;SDS011;38806;51.554;5.704;2023-03-12T03:17:38;10.40;;;5.28;;
50495;SDS011;38806;51.554;5.704;2023-03-12T03:19:39;9.68;;;5.72;;
50495;SDS011;38806;51.554;5.704;2023-03-12T03:21:39;10.23;;;6.10;;
50495;SDS011;38806;51.554;5.704;2023-03-12T03:23:39;8.70;;;5.03;;
50495;SDS011;38806;51.554;5.704;2023-03-12T03:25:39;10.02;;;4.60;;
50495;SDS011;38806;51.554;5.704;2023-03-12T03:27:40;10.52;;;5.35;;
50495;SDS011;38806;51.554;5.704;2023-03-12T03:29:40;12.52;;;6.25;;
50495;SDS011;38806;51.554;5.704;2023-03-12T03:31:40;8.77;;;5.32;;
50495;SDS011;38806;51.554;5.704;2023-03-12T03:33:40;12.85;;;6.38;;
50495;SDS011;38806;51.554;5.704;2023-03-12T03:35:40;13.93;;;5.15;;
50495;SDS011;38806;51.554;5.704;2023-03-12T03:37:41;14.05;;;5.75;;
50495;SDS011;38806;51.554;5.704;2023-03-12T03:39:41;18.65;;;5.72;;
50495;SDS011;38806;51.554;5.704;2023-03-12T03:41:41;11.45;;;5.15;;
50495;SDS011;38806;51.554;5.704;2023-03-12T03:43:41;13.32;;;6.50;;
50495;SDS011;38806;51.554;5.704;2023-03-12T03:45:42;12.65;;;7.40;;
50495;SDS011;38806;51.554;5.704;2023-03-12T03:47:43;12.80;;;5.90;;
50495;SDS011;38806;51.554;5.704;2023-03-12T03:49:44;11.32;;;5.07;;
50495;SDS011;38806;51.554;5.704;2023-03-12T03:51:44;8.45;;;4.28;;
50495;SDS011;38806;51.554;5.704;2023-03-12T03:53:44;9.05;;;4.75;;
50495;SDS011;38806;51.554;5.704;2023-03-12T03:55:45;13.13;;;6.43;;
50495;SDS011;38806;51.554;5.704;2023-03-12T03:57:45;9.90;;;5.95;;
50495;SDS011;38806;51.554;5.704;2023-03-12T03:59:46;9.68;;;5.20;;
50495;SDS011;38806;51.554;5.704;2023-03-12T04:01:46;11.00;;;5.90;;
50495;SDS011;38806;51.554;5.704;2023-03-12T04:03:46;10.88;;;5.97;;
50495;SDS011;38806;51.554;5.704;2023-03-12T04:05:52;9.13;;;5.57;;
50495;SDS011;38806;51.554;5.704;2023-03-12T04:07:52;11.77;;;5.80;;
50495;SDS011;38806;51.554;5.704;2023-03-12T04:09:53;11.45;;;5.82;;
50495;SDS011;38806;51.554;5.704;2023-03-12T04:11:54;9.38;;;5.78;;
50495;SDS011;38806;51.554;5.704;2023-03-12T04:13:54;9.70;;;5.40;;
50495;SDS011;38806;51.554;5.704;2023-03-12T04:15:54;8.23;;;4.47;;
50495;SDS011;38806;51.554;5.704;2023-03-12T04:17:54;7.97;;;4.57;;
50495;SDS011;38806;51.554;5.704;2023-03-12T04:19:54;13.40;;;5.82;;
50495;SDS011;38806;51.554;5.704;2023-03-12T04:21:55;9.20;;;5.30;;
50495;SDS011;38806;51.554;5.704;2023-03-12T04:23:55;11.45;;;5.68;;
50495;SDS011;38806;51.554;5.704;2023-03-12T04:25:55;9.55;;;5.53;;
50495;SDS011;38806;51.554;5.704;2023-03-12T04:27:55;8.77;;;5.20;;
50495;SDS011;38806;51.554;5.704;2023-03-12T04:29:55;16.17;;;5.90;;
50495;SDS011;38806;51.554;5.704;2023-03-12T04:31:56;10.77;;;4.93;;
50495;SDS011;38806;51.554;5.704;2023-03-12T04:33:56;10.18;;;5.03;;
50495;SDS011;38806;51.554;5.704;2023-03-12T04:35:56;9.75;;;4.63;;
50495;SDS011;38806;51.554;5.704;2023-03-12T04:37:56;8.68;;;5.65;;
50495;SDS011;38806;51.554;5.704;2023-03-12T04:39:57;8.55;;;4.90;;
50495;SDS011;38806;51.554;5.704;2023-03-12T04:41:57;8.65;;;4.93;;
50495;SDS011;38806;51.554;5.704;2023-03-12T04:43:57;10.40;;;5.00;;
50495;SDS011;38806;51.554;5.704;2023-03-12T04:45:57;10.77;;;4.93;;
50495;SDS011;38806;51.554;5.704;2023-03-12T04:47:58;12.00;;;5.85;;
50495;SDS011;38806;51.554;5.704;2023-03-12T04:49:58;9.77;;;4.47;;
50495;SDS011;38806;51.554;5.704;2023-03-12T04:51:58;16.30;;;5.88;;
50495;SDS011;38806;51.554;5.704;2023-03-12T04:53:58;13.32;;;7.32;;
50495;SDS011;38806;51.554;5.704;2023-03-12T04:55:59;8.38;;;5.43;;
50495;SDS011;38806;51.554;5.704;2023-03-12T04:57:59;8.40;;;4.97;;
50495;SDS011;38806;51.554;5.704;2023-03-12T04:59:59;9.18;;;4.85;;
50495;SDS011;38806;51.554;5.704;2023-03-12T05:01:59;13.38;;;5.13;;
50495;SDS011;38806;51.554;5.704;2023-03-12T05:04:00;9.63;;;5.25;;
50495;SDS011;38806;51.554;5.704;2023-03-12T05:06:00;11.40;;;5.65;;
50495;SDS011;38806;51.554;5.704;2023-03-12T05:08:00;9.05;;;5.15;;
50495;SDS011;38806;51.554;5.704;2023-03-12T05:10:01;7.43;;;5.10;;
50495;SDS011;38806;51.554;5.704;2023-03-12T05:12:01;8.80;;;4.95;;
50495;SDS011;38806;51.554;5.704;2023-03-12T05:14:01;10.30;;;4.20;;
50495;SDS011;38806;51.554;5.704;2023-03-12T05:16:01;10.13;;;4.78;;
50495;SDS011;38806;51.554;5.704;2023-03-12T05:18:02;11.18;;;4.35;;
50495;SDS011;38806;51.554;5.704;2023-03-12T05:20:03;10.00;;;4.93;;
50495;SDS011;38806;51.554;5.704;2023-03-12T05:22:06;11.60;;;4.93;;
50495;SDS011;38806;51.554;5.704;2023-03-12T05:24:07;8.02;;;3.72;;
50495;SDS011;38806;51.554;5.704;2023-03-12T05:26:29;7.45;;;3.55;;
50495;SDS011;38806;51.554;5.704;2023-03-12T05:28:28;11.10;;;3.83;;
50495;SDS011;38806;51.554;5.704;2023-03-12T05:30:28;12.25;;;4.10;;
50495;SDS011;38806;51.554;5.704;2023-03-12T05:32:28;9.43;;;4.00;;
50495;SDS011;38806;51.554;5.704;2023-03-12T05:34:29;11.50;;;4.45;;
50495;SDS011;38806;51.554;5.704;2023-03-12T05:36:29;10.05;;;6.82;;
50495;SDS011;38806;51.554;5.704;2023-03-12T05:38:29;9.45;;;4.57;;
50495;SDS011;38806;51.554;5.704;2023-03-12T05:40:29;10.75;;;4.55;;
50495;SDS011;38806;51.554;5.704;2023-03-12T05:42:30;8.00;;;4.90;;
50495;SDS011;38806;51.554;5.704;2023-03-12T05:44:30;9.43;;;4.47;;
50495;SDS011;38806;51.554;5.704;2023-03-12T05:46:31;8.95;;;3.80;;
50495;SDS011;38806;51.554;5.704;2023-03-12T05:48:31;6.47;;;3.72;;
50495;SDS011;38806;51.554;5.704;2023-03-12T05:50:31;14.82;;;5.22;;
50495;SDS011;38806;51.554;5.704;2023-03-12T05:52:31;5.63;;;3.25;;
50495;SDS011;38806;51.554;5.704;2023-03-12T05:54:31;6.80;;;4.47;;
50495;SDS011;38806;51.554;5.704;2023-03-12T05:56:31;8.55;;;3.92;;
50495;SDS011;38806;51.554;5.704;2023-03-12T05:58:32;11.65;;;4.03;;
50495;SDS011;38806;51.554;5.704;2023-03-12T06:00:33;10.25;;;4.53;;
50495;SDS011;38806;51.554;5.704;2023-03-12T06:02:36;10.48;;;3.85;;
50495;SDS011;38806;51.554;5.704;2023-03-12T06:04:37;8.82;;;4.90;;
50495;SDS011;38806;51.554;5.704;2023-03-12T06:06:37;9.32;;;4.40;;
50495;SDS011;38806;51.554;5.704;2023-03-12T06:08:38;8.75;;;3.88;;
50495;SDS011;38806;51.554;5.704;2023-03-12T06:10:38;7.25;;;4.18;;
50495;SDS011;38806;51.554;5.704;2023-03-12T06:12:38;9.60;;;4.90;;
50495;SDS011;38806;51.554;5.704;2023-03-12T06:14:39;6.53;;;4.10;;
50495;SDS011;38806;51.554;5.704;2023-03-12T06:16:39;13.63;;;5.00;;
50495;SDS011;38806;51.554;5.704;2023-03-12T06:18:39;12.35;;;5.18;;
50495;SDS011;38806;51.554;5.704;2023-03-12T06:20:39;12.00;;;4.72;;
50495;SDS011;38806;51.554;5.704;2023-03-12T06:22:39;9.52;;;6.65;;
50495;SDS011;38806;51.554;5.704;2023-03-12T06:24:40;11.23;;;5.25;;
50495;SDS011;38806;51.554;5.704;2023-03-12T06:26:41;12.13;;;4.45;;
50495;SDS011;38806;51.554;5.704;2023-03-12T06:28:42;7.70;;;4.55;;
50495;SDS011;38806;51.554;5.704;2023-03-12T06:30:43;8.98;;;4.32;;
50495;SDS011;38806;51.554;5.704;2023-03-12T06:32:43;8.98;;;4.60;;
50495;SDS011;38806;51.554;5.704;2023-03-12T06:34:44;11.18;;;4.57;;
50495;SDS011;38806;51.554;5.704;2023-03-12T06:36:44;9.43;;;4.13;;
50495;SDS011;38806;51.554;5.704;2023-03-12T06:38:45;12.15;;;5.53;;
50495;SDS011;38806;51.554;5.704;2023-03-12T06:41:07;8.63;;;4.50;;
50495;SDS011;38806;51.554;5.704;2023-03-12T06:43:05;9.40;;;4.95;;
50495;SDS011;38806;51.554;5.704;2023-03-12T06:45:11;13.55;;;6.03;;
50495;SDS011;38806;51.554;5.704;2023-03-12T06:47:11;13.15;;;6.43;;
50495;SDS011;38806;51.554;5.704;2023-03-12T06:49:11;12.00;;;6.43;;
50495;SDS011;38806;51.554;5.704;2023-03-12T06:51:12;14.85;;;5.20;;
50495;SDS011;38806;51.554;5.704;2023-03-12T06:53:13;14.75;;;7.78;;
50495;SDS011;38806;51.554;5.704;2023-03-12T06:55:13;11.23;;;5.47;;
50495;SDS011;38806;51.554;5.704;2023-03-12T06:57:13;11.32;;;6.15;;
50495;SDS011;38806;51.554;5.704;2023-03-12T06:59:15;12.65;;;7.25;;
50495;SDS011;38806;51.554;5.704;2023-03-12T07:01:17;10.60;;;6.78;;
50495;SDS011;38806;51.554;5.704;2023-03-12T07:03:17;15.20;;;7.18;;
50495;SDS011;38806;51.554;5.704;2023-03-12T07:05:17;17.35;;;7.15;;
50495;SDS011;38806;51.554;5.704;2023-03-12T07:07:17;17.00;;;6.80;;
50495;SDS011;38806;51.554;5.704;2023-03-12T07:09:19;26.15;;;8.93;;
50495;SDS011;38806;51.554;5.704;2023-03-12T07:11:19;13.65;;;6.93;;
50495;SDS011;38806;51.554;5.704;2023-03-12T07:13:19;15.25;;;9.10;;
50495;SDS011;38806;51.554;5.704;2023-03-12T07:15:19;18.75;;;7.93;;
50495;SDS011;38806;51.554;5.704;2023-03-12T07:17:20;16.58;;;7.75;;
50495;SDS011;38806;51.554;5.704;2023-03-12T07:19:22;13.65;;;8.07;;
50495;SDS011;38806;51.554;5.704;2023-03-12T07:21:22;16.73;;;8.02;;
50495;SDS011;38806;51.554;5.704;2023-03-12T07:23:22;13.20;;;7.85;;
50495;SDS011;38806;51.554;5.704;2023-03-12T07:25:23;15.07;;;8.57;;
50495;SDS011;38806;51.554;5.704;2023-03-12T07:27:23;15.15;;;8.43;;
50495;SDS011;38806;51.554;5.704;2023-03-12T07:29:23;14.63;;;8.48;;
50495;SDS011;38806;51.554;5.704;2023-03-12T07:31:23;13.75;;;7.90;;
50495;SDS011;38806;51.554;5.704;2023-03-12T07:33:24;15.38;;;8.13;;
50495;SDS011;38806;51.554;5.704;2023-03-12T07:35:24;18.13;;;8.00;;
50495;SDS011;38806;51.554;5.704;2023-03-12T07:37:24;12.48;;;8.07;;
50495;SDS011;38806;51.554;5.704;2023-03-12T07:39:24;12.95;;;8.20;;
50495;SDS011;38806;51.554;5.704;2023-03-12T07:41:25;14.05;;;8.25;;
50495;SDS011;38806;51.554;5.704;2023-03-12T07:43:25;18.13;;;8.50;;
50495;SDS011;38806;51.554;5.704;2023-03-12T07:45:25;15.20;;;8.40;;
50495;SDS011;38806;51.554;5.704;2023-03-12T07:47:26;18.30;;;10.48;;
50495;SDS011;38806;51.554;5.704;2023-03-12T07:49:26;17.75;;;8.50;;
50495;SDS011;38806;51.554;5.704;2023-03-12T07:51:26;17.90;;;9.60;;
50495;SDS011;38806;51.554;5.704;2023-03-12T07:53:26;16.63;;;9.70;;
50495;SDS011;38806;51.554;5.704;2023-03-12T07:55:26;17.58;;;8.88;;
50495;SDS011;38806;51.554;5.704;2023-03-12T07:57:27;17.95;;;9.98;;
50495;SDS011;38806;51.554;5.704;2023-03-12T07:59:27;17.45;;;9.43;;
50495;SDS011;38806;51.554;5.704;2023-03-12T08:01:27;20.27;;;9.68;;
50495;SDS011;38806;51.554;5.704;2023-03-12T08:03:31;15.98;;;9.02;;
50495;SDS011;38806;51.554;5.704;2023-03-12T08:05:31;17.55;;;10.27;;
50495;SDS011;38806;51.554;5.704;2023-03-12T08:07:32;17.42;;;9.48;;
50495;SDS011;38806;51.554;5.704;2023-03-12T08:09:33;17.25;;;9.43;;
50495;SDS011;38806;51.554;5.704;2023-03-12T08:11:34;19.23;;;10.95;;
50495;SDS011;38806;51.554;5.704;2023-03-12T08:13:35;16.92;;;9.75;;
50495;SDS011;38806;51.554;5.704;2023-03-12T08:15:36;17.13;;;10.27;;
50495;SDS011;38806;51.554;5.704;2023-03-12T08:17:36;17.65;;;9.20;;
50495;SDS011;38806;51.554;5.704;2023-03-12T08:19:36;15.18;;;9.95;;
50495;SDS011;38806;51.554;5.704;2023-03-12T08:21:36;17.60;;;11.00;;
50495;SDS011;38806;51.554;5.704;2023-03-12T08:23:36;19.17;;;12.35;;
50495;SDS011;38806;51.554;5.704;2023-03-12T08:25:37;17.30;;;9.13;;
50495;SDS011;38806;51.554;5.704;2023-03-12T08:27:37;20.23;;;10.98;;
50495;SDS011;38806;51.554;5.704;2023-03-12T08:29:37;19.98;;;11.35;;
50495;SDS011;38806;51.554;5.704;2023-03-12T08:31:38;20.33;;;10.38;;
50495;SDS011;38806;51.554;5.704;2023-03-12T08:33:38;22.38;;;11.30;;
50495;SDS011;38806;51.554;5.704;2023-03-12T08:35:42;15.07;;;9.85;;
50495;SDS011;38806;51.554;5.704;2023-03-12T08:37:42;17.90;;;10.60;;
50495;SDS011;38806;51.554;5.704;2023-03-12T08:39:42;18.05;;;10.70;;
50495;SDS011;38806;51.554;5.704;2023-03-12T08:41:42;19.95;;;12.15;;
50495;SDS011;38806;51.554;5.704;2023-03-12T08:43:43;14.70;;;9.65;;
50495;SDS011;38806;51.554;5.704;2023-03-12T08:45:43;18.58;;;11.73;;
50495;SDS011;38806;51.554;5.704;2023-03-12T08:47:43;20.55;;;11.57;;
50495;SDS011;38806;51.554;5.704;2023-03-12T08:49:43;18.90;;;11.73;;
50495;SDS011;38806;51.554;5.704;2023-03-12T08:51:44;18.48;;;11.57;;
50495;SDS011;38806;51.554;5.704;2023-03-12T08:53:44;18.95;;;12.55;;
50495;SDS011;38806;51.554;5.704;2023-03-12T08:55:44;20.58;;;12.25;;
50495;SDS011;38806;51.554;5.704;2023-03-12T08:57:44;19.10;;;11.65;;
50495;SDS011;38806;51.554;5.704;2023-03-12T08:59:44;18.30;;;11.55;;
50495;SDS011;38806;51.554;5.704;2023-03-12T09:01:45;19.60;;;11.48;;
50495;SDS011;38806;51.554;5.704;2023-03-12T09:03:45;20.50;;;12.05;;
50495;SDS011;38806;51.554;5.704;2023-03-12T09:05:48;19.98;;;12.65;;
50495;SDS011;38806;51.554;5.704;2023-03-12T09:07:49;20.83;;;13.38;;
50495;SDS011;38806;51.554;5.704;2023-03-12T09:09:49;25.85;;;13.75;;
50495;SDS011;38806;51.554;5.704;2023-03-12T09:11:49;24.15;;;13.45;;
50495;SDS011;38806;51.554;5.704;2023-03-12T09:13:49;20.88;;;12.30;;
50495;SDS011;38806;51.554;5.704;2023-03-12T09:15:49;18.60;;;12.00;;
50495;SDS011;38806;51.554;5.704;2023-03-12T09:17:50;23.33;;;14.07;;
50495;SDS011;38806;51.554;5.704;2023-03-12T09:19:50;24.40;;;13.65;;
50495;SDS011;38806;51.554;5.704;2023-03-12T09:21:50;21.92;;;14.02;;
50495;SDS011;38806;51.554;5.704;2023-03-12T09:23:50;23.45;;;14.65;;
50495;SDS011;38806;51.554;5.704;2023-03-12T09:25:51;24.25;;;14.73;;
50495;SDS011;38806;51.554;5.704;2023-03-12T09:27:51;24.40;;;13.73;;
50495;SDS011;38806;51.554;5.704;2023-03-12T09:29:52;22.55;;;15.95;;
50495;SDS011;38806;51.554;5.704;2023-03-12T09:31:52;22.80;;;13.23;;
50495;SDS011;38806;51.554;5.704;2023-03-12T09:33:53;25.50;;;16.90;;
50495;SDS011;38806;51.554;5.704;2023-03-12T09:35:56;25.42;;;15.13;;
50495;SDS011;38806;51.554;5.704;2023-03-12T09:37:57;25.25;;;15.38;;
50495;SDS011;38806;51.554;5.704;2023-03-12T09:39:57;25.40;;;16.60;;
50495;SDS011;38806;51.554;5.704;2023-03-12T09:41:57;23.40;;;15.35;;
50495;SDS011;38806;51.554;5.704;2023-03-12T09:46:01;23.13;;;16.80;;
50495;SDS011;38806;51.554;5.704;2023-03-12T09:48:04;28.60;;;16.27;;
50495;SDS011;38806;51.554;5.704;2023-03-12T09:50:06;23.40;;;15.57;;
50495;SDS011;38806;51.554;5.704;2023-03-12T09:52:56;23.80;;;15.48;;
50495;SDS011;38806;51.554;5.704;2023-03-12T09:54:40;29.70;;;16.20;;
50495;SDS011;38806;51.554;5.704;2023-03-12T09:56:43;25.90;;;16.52;;
50495;SDS011;38806;51.554;5.704;2023-03-12T09:58:44;26.88;;;17.85;;
50495;SDS011;38806;51.554;5.704;2023-03-12T10:00:49;26.70;;;16.65;;
50495;SDS011;38806;51.554;5.704;2023-03-12T10:04:53;31.52;;;19.00;;
50495;SDS011;38806;51.554;5.704;2023-03-12T10:28:18;27.52;;;16.42;;
50495;SDS011;38806;51.554;5.704;2023-03-12T10:30:21;30.58;;;18.15;;
50495;SDS011;38806;51.554;5.704;2023-03-12T10:32:25;29.92;;;19.67;;
50495;SDS011;38806;51.554;5.704;2023-03-12T10:34:48;30.20;;;18.52;;
50495;SDS011;38806;51.554;5.704;2023-03-12T10:36:46;29.08;;;17.48;;
50495;SDS011;38806;51.554;5.704;2023-03-12T10:38:47;29.70;;;16.92;;
50495;SDS011;38806;51.554;5.704;2023-03-12T10:40:49;28.33;;;17.27;;
50495;SDS011;38806;51.554;5.704;2023-03-12T10:42:50;34.17;;;18.85;;
50495;SDS011;38806;51.554;5.704;2023-03-12T10:44:51;29.50;;;19.92;;
50495;SDS011;38806;51.554;5.704;2023-03-12T10:46:55;25.45;;;15.80;;
50495;SDS011;38806;51.554;5.704;2023-03-12T10:51:17;36.17;;;20.60;;
50495;SDS011;38806;51.554;5.704;2023-03-12T10:53:19;39.03;;;20.30;;
50495;SDS011;38806;51.554;5.704;2023-03-12T10:55:24;34.25;;;19.10;;
50495;SDS011;38806;51.554;5.704;2023-03-12T10:57:30;36.72;;;21.10;;
50495;SDS011;38806;51.554;5.704;2023-03-12T10:59:38;32.03;;;18.23;;
50495;SDS011;38806;51.554;5.704;2023-03-12T11:01:42;34.63;;;20.17;;
50495;SDS011;38806;51.554;5.704;2023-03-12T11:03:46;31.65;;;19.60;;
50495;SDS011;38806;51.554;5.704;2023-03-12T11:05:47;38.25;;;21.35;;
50495;SDS011;38806;51.554;5.704;2023-03-12T11:07:48;43.47;;;20.88;;
50495;SDS011;38806;51.554;5.704;2023-03-12T11:10:02;39.05;;;21.48;;
50495;SDS011;38806;51.554;5.704;2023-03-12T11:12:20;36.90;;;20.55;;
50495;SDS011;38806;51.554;5.704;2023-03-12T11:14:25;34.05;;;22.52;;
50495;SDS011;38806;51.554;5.704;2023-03-12T11:16:25;37.65;;;20.15;;
50495;SDS011;38806;51.554;5.704;2023-03-12T11:20:28;34.58;;;20.65;;
50495;SDS011;38806;51.554;5.704;2023-03-12T11:22:33;37.10;;;21.35;;
50495;SDS011;38806;51.554;5.704;2023-03-12T11:24:33;31.55;;;16.85;;
50495;SDS011;38806;51.554;5.704;2023-03-12T11:26:35;41.47;;;20.25;;
50495;SDS011;38806;51.554;5.704;2023-03-12T11:28:37;36.20;;;17.88;;
50495;SDS011;38806;51.554;5.704;2023-03-12T11:30:39;31.58;;;17.42;;
50495;SDS011;38806;51.554;5.704;2023-03-12T11:32:41;29.27;;;16.95;;
50495;SDS011;38806;51.554;5.704;2023-03-12T11:34:42;29.50;;;17.63;;
50495;SDS011;38806;51.554;5.704;2023-03-12T11:41:31;35.50;;;15.50;;
50495;SDS011;38806;51.554;5.704;2023-03-12T11:50:02;30.52;;;16.30;;
50495;SDS011;38806;51.554;5.704;2023-03-12T11:56:28;35.22;;;13.23;;
50495;SDS011;38806;51.554;5.704;2023-03-12T11:58:33;35.05;;;15.60;;
50495;SDS011;38806;51.554;5.704;2023-03-12T12:04:47;28.02;;;16.17;;
50495;SDS011;38806;51.554;5.704;2023-03-12T12:06:55;30.77;;;14.60;;
50495;SDS011;38806;51.554;5.704;2023-03-12T12:19:33;39.60;;;15.73;;
50495;SDS011;38806;51.554;5.704;2023-03-12T12:23:42;33.05;;;16.48;;
50495;SDS011;38806;51.554;5.704;2023-03-12T12:31:54;32.78;;;18.00;;
50495;SDS011;38806;51.554;5.704;2023-03-12T12:35:55;34.17;;;16.80;;
50495;SDS011;38806;51.554;5.704;2023-03-12T12:38:00;30.20;;;16.88;;
50495;SDS011;38806;51.554;5.704;2023-03-12T12:42:11;32.53;;;16.40;;
50495;SDS011;38806;51.554;5.704;2023-03-12T12:46:32;28.17;;;15.15;;
50495;SDS011;38806;51.554;5.704;2023-03-12T12:48:37;31.38;;;15.77;;
50495;SDS011;38806;51.554;5.704;2023-03-12T12:50:38;24.73;;;13.63;;
50495;SDS011;38806;51.554;5.704;2023-03-12T12:52:38;26.60;;;14.18;;
50495;SDS011;38806;51.554;5.704;2023-03-12T12:54:44;25.92;;;14.23;;
50495;SDS011;38806;51.554;5.704;2023-03-12T13:01:02;25.23;;;14.52;;
50495;SDS011;38806;51.554;5.704;2023-03-12T13:03:02;32.80;;;12.57;;
50495;SDS011;38806;51.554;5.704;2023-03-12T13:05:03;25.77;;;14.10;;
50495;SDS011;38806;51.554;5.704;2023-03-12T13:09:21;25.63;;;15.20;;
50495;SDS011;38806;51.554;5.704;2023-03-12T13:11:23;38.50;;;16.45;;
50495;SDS011;38806;51.554;5.704;2023-03-12T13:13:24;31.30;;;14.93;;
50495;SDS011;38806;51.554;5.704;2023-03-12T13:19:49;36.60;;;16.77;;
50495;SDS011;38806;51.554;5.704;2023-03-12T13:22:12;32.95;;;16.33;;
50495;SDS011;38806;51.554;5.704;2023-03-12T13:30:53;28.42;;;14.10;;
50495;SDS011;38806;51.554;5.704;2023-03-12T13:34:56;28.52;;;13.23;;
50495;SDS011;38806;51.554;5.704;2023-03-12T13:36:58;28.13;;;14.27;;
50495;SDS011;38806;51.554;5.704;2023-03-12T13:41:05;25.80;;;12.73;;